Time;durP1;ratioP1;P1;durP2;ratioP2;P2;SDS_P1;SDS_P2;PMS_P1;PMS_P2;Temp;Humidity;BMP_temperature;BMP_pressure;BME280_temperature;BME280_humidity;BME280_pressure;Samples;Min_cycle;Max_cycle;Signal;HPM_P1;HPM_P2
2022/04/21 00:00:08;;;;;;;3.03;2.20;;;;;;;;;;4952356;29;20573;-68
2022/04/21 00:02:34;;;;;;;4.45;2.42;;;;;;;;;;4952142;29;20126;-68
2022/04/21 00:05:00;;;;;;;3.50;2.50;;;;;;;;;;4988225;28;20057;-68
2022/04/21 00:07:26;;;;;;;3.85;2.38;;;;;;;;;;5013137;28;20046;-69
2022/04/21 00:09:52;;;;;;;3.47;2.30;;;;;;;;;;5016131;28;20493;-68
2022/04/21 00:12:18;;;;;;;4.00;2.30;;;;;;;;;;5015692;28;20042;-68
2022/04/21 00:14:44;;;;;;;2.83;2.08;;;;;;;;;;5015897;28;20042;-68
2022/04/21 00:17:10;;;;;;;4.63;2.50;;;;;;;;;;5015821;28;20123;-68
2022/04/21 00:19:37;;;;;;;5.35;2.60;;;;;;;;;;5015651;28;20077;-68
2022/04/21 00:24:48;;;;;;;3.13;2.42;;;;;;;;;;5000681;28;20054;-68
2022/04/21 00:27:14;;;;;;;5.85;2.83;;;;;;;;;;5014714;28;20412;-68
2022/04/21 00:29:40;;;;;;;3.92;2.50;;;;;;;;;;5015303;28;20100;-68
2022/04/21 00:32:06;;;;;;;4.40;2.50;;;;;;;;;;5015595;28;20121;-68
2022/04/21 00:34:32;;;;;;;3.00;2.30;;;;;;;;;;5014613;28;20050;-68
2022/04/21 00:36:59;;;;;;;3.38;2.15;;;;;;;;;;4998085;28;20093;-68
2022/04/21 00:39:25;;;;;;;3.80;2.17;;;;;;;;;;5015329;28;20161;-68
2022/04/21 00:41:58;;;;;;;3.65;2.22;;;;;;;;;;5015161;28;20042;-68
2022/04/21 00:44:25;;;;;;;4.13;2.38;;;;;;;;;;5016270;28;20050;-67
2022/04/21 00:46:52;;;;;;;4.68;2.30;;;;;;;;;;5015856;28;20050;-68
2022/04/21 00:49:19;;;;;;;4.45;2.35;;;;;;;;;;5015656;28;20050;-68
2022/04/21 00:51:45;;;;;;;3.28;2.10;;;;;;;;;;5015233;28;20042;-68
2022/04/21 00:54:11;;;;;;;4.35;2.53;;;;;;;;;;5015232;28;20077;-68
2022/04/21 00:56:37;;;;;;;3.58;2.40;;;;;;;;;;5015376;28;20092;-68
2022/04/21 00:59:04;;;;;;;3.08;2.15;;;;;;;;;;5014806;28;20060;-68
2022/04/21 01:04:15;;;;;;;3.65;2.50;;;;;;;;;;5015092;28;20050;-69
2022/04/21 01:06:41;;;;;;;3.72;2.40;;;;;;;;;;5014523;28;20054;-68
2022/04/21 01:09:09;;;;;;;3.22;2.38;;;;;;;;;;5015077;28;20046;-68
2022/04/21 01:11:35;;;;;;;3.53;2.10;;;;;;;;;;5014825;28;20038;-68
2022/04/21 01:14:01;;;;;;;3.65;2.20;;;;;;;;;;5014664;28;20092;-68
2022/04/21 01:16:27;;;;;;;3.35;2.20;;;;;;;;;;5014895;28;20038;-68
2022/04/21 01:18:53;;;;;;;3.15;2.05;;;;;;;;;;5014482;28;20133;-68
2022/04/21 01:21:19;;;;;;;3.28;2.40;;;;;;;;;;5019409;28;20142;-68
2022/04/21 01:23:46;;;;;;;2.95;2.20;;;;;;;;;;5019149;28;20519;-68
2022/04/21 01:26:12;;;;;;;3.58;2.20;;;;;;;;;;4996920;28;20171;-68
2022/04/21 01:28:39;;;;;;;4.13;2.42;;;;;;;;;;5014562;28;20038;-68
2022/04/21 01:31:05;;;;;;;3.20;2.30;;;;;;;;;;5014622;28;20042;-68
2022/04/21 01:33:31;;;;;;;3.47;2.30;;;;;;;;;;5014350;28;20034;-68
2022/04/21 01:35:56;;;;;;;3.75;2.58;;;;;;;;;;5014420;28;20084;-68
2022/04/21 01:41:11;;;;;;;3.63;2.30;;;;;;;;;;5012931;28;20125;-68
2022/04/21 01:43:38;;;;;;;4.30;2.42;;;;;;;;;;5014199;28;20500;-68
2022/04/21 01:46:05;;;;;;;3.50;2.35;;;;;;;;;;5014585;28;20065;-68
2022/04/21 01:48:31;;;;;;;3.92;2.50;;;;;;;;;;5014529;28;20084;-68
2022/04/21 01:50:57;;;;;;;2.85;2.13;;;;;;;;;;5014236;28;20100;-68
2022/04/21 01:53:23;;;;;;;3.47;2.28;;;;;;;;;;5014122;28;20125;-68
2022/04/21 01:55:49;;;;;;;3.30;2.30;;;;;;;;;;5014355;28;20168;-68
2022/04/21 01:58:15;;;;;;;2.60;2.28;;;;;;;;;;5013978;28;20129;-68
2022/04/21 02:00:41;;;;;;;2.90;2.10;;;;;;;;;;5013761;28;20150;-68
2022/04/21 02:03:07;;;;;;;3.95;2.38;;;;;;;;;;5013652;28;20507;-68
2022/04/21 02:05:33;;;;;;;4.28;2.17;;;;;;;;;;5014132;28;20042;-68
2022/04/21 02:08:00;;;;;;;3.20;2.30;;;;;;;;;;5013706;28;20060;-68
2022/04/21 02:10:26;;;;;;;3.00;2.40;;;;;;;;;;5013883;28;20060;-68
2022/04/21 02:12:53;;;;;;;2.90;2.20;;;;;;;;;;5013998;28;20129;-68
2022/04/21 02:15:19;;;;;;;3.08;2.08;;;;;;;;;;5013163;28;20462;-68
2022/04/21 02:17:46;;;;;;;3.33;2.40;;;;;;;;;;5012975;28;20049;-68
2022/04/21 02:20:16;;;;;;;2.63;2.25;;;;;;;;;;5013425;28;20045;-68
2022/04/21 02:22:43;;;;;;;2.53;2.03;;;;;;;;;;5013467;28;20416;-68
2022/04/21 02:25:10;;;;;;;3.55;2.28;;;;;;;;;;5013164;28;20489;-68
2022/04/21 02:27:37;;;;;;;3.15;2.20;;;;;;;;;;5013855;28;20096;-68
2022/04/21 02:30:03;;;;;;;2.72;2.00;;;;;;;;;;4995498;28;20513;-68
2022/04/21 02:32:29;;;;;;;3.20;2.08;;;;;;;;;;5013422;28;20136;-68
2022/04/21 02:34:55;;;;;;;3.55;2.50;;;;;;;;;;5013667;28;20096;-68
2022/04/21 02:37:22;;;;;;;4.07;2.40;;;;;;;;;;5013284;28;20057;-68
2022/04/21 02:39:51;;;;;;;2.97;2.00;;;;;;;;;;5013177;28;20074;-68
2022/04/21 02:42:19;;;;;;;3.10;2.17;;;;;;;;;;5013682;28;20046;-68
2022/04/21 02:44:45;;;;;;;3.70;2.28;;;;;;;;;;5013225;28;20058;-68
2022/04/21 02:47:11;;;;;;;4.05;2.30;;;;;;;;;;5013176;28;20042;-68
2022/04/21 02:49:38;;;;;;;2.92;2.13;;;;;;;;;;5012815;28;20041;-68
2022/04/21 02:52:09;;;;;;;3.25;2.30;;;;;;;;;;5013662;28;20096;-68
2022/04/21 02:57:21;;;;;;;3.72;2.42;;;;;;;;;;5013078;28;20050;-68
2022/04/21 02:59:47;;;;;;;2.95;2.13;;;;;;;;;;5013039;28;20054;-68
2022/04/21 03:02:13;;;;;;;2.60;2.35;;;;;;;;;;5012730;28;20525;-68
2022/04/21 03:04:39;;;;;;;2.95;2.10;;;;;;;;;;5013373;28;20121;-68
2022/04/21 03:07:05;;;;;;;3.00;2.40;;;;;;;;;;5013380;28;20038;-68
2022/04/21 03:09:32;;;;;;;2.88;2.20;;;;;;;;;;5012957;28;20045;-68
2022/04/21 03:12:02;;;;;;;2.67;2.13;;;;;;;;;;4995654;28;20116;-68
2022/04/21 03:14:28;;;;;;;2.75;2.40;;;;;;;;;;5013553;28;20050;-68
2022/04/21 03:16:54;;;;;;;3.22;2.13;;;;;;;;;;5012246;28;20038;-68
2022/04/21 03:19:20;;;;;;;2.40;2.00;;;;;;;;;;5013156;28;20053;-68
2022/04/21 03:24:32;;;;;;;2.67;2.10;;;;;;;;;;5013283;28;20058;-68
2022/04/21 03:26:58;;;;;;;2.80;2.30;;;;;;;;;;5012702;28;20089;-68
2022/04/21 03:29:24;;;;;;;2.70;2.20;;;;;;;;;;5012816;28;20124;-69
2022/04/21 03:31:51;;;;;;;2.53;2.10;;;;;;;;;;5012684;28;20061;-68
2022/04/21 03:34:17;;;;;;;3.38;2.30;;;;;;;;;;5012712;28;20397;-68
2022/04/21 03:36:48;;;;;;;2.65;2.13;;;;;;;;;;5012695;28;20050;-68
2022/04/21 03:39:14;;;;;;;3.05;2.20;;;;;;;;;;5012800;28;20061;-68
2022/04/21 03:41:40;;;;;;;2.92;2.10;;;;;;;;;;5012633;28;20046;-68
2022/04/21 03:44:06;;;;;;;3.45;2.08;;;;;;;;;;4998778;28;20045;-68
2022/04/21 03:46:32;;;;;;;2.95;2.20;;;;;;;;;;5016446;28;20046;-68
2022/04/21 03:48:58;;;;;;;2.90;1.85;;;;;;;;;;5016479;28;20046;-68
2022/04/21 03:51:27;;;;;;;3.55;2.10;;;;;;;;;;5016705;28;20097;-68
2022/04/21 03:53:56;;;;;;;2.47;2.00;;;;;;;;;;5016556;28;20053;-68
2022/04/21 03:56:22;;;;;;;2.80;2.03;;;;;;;;;;5016302;28;20115;-68
2022/04/21 03:58:48;;;;;;;2.92;2.30;;;;;;;;;;5015708;28;20053;-68
2022/04/21 04:01:14;;;;;;;3.13;2.20;;;;;;;;;;5016093;28;20058;-68
2022/04/21 04:03:40;;;;;;;3.65;2.22;;;;;;;;;;5015907;28;20042;-68
2022/04/21 04:11:37;;;;;;;2.40;2.10;;;;;;;;;;5015460;28;20441;-68
2022/04/21 04:14:05;;;;;;;2.45;1.90;;;;;;;;;;5016311;28;20049;-68
2022/04/21 04:16:31;;;;;;;3.00;2.20;;;;;;;;;;5015734;28;20060;-68
2022/04/21 04:18:57;;;;;;;2.38;2.00;;;;;;;;;;5015736;28;20034;-68
2022/04/21 04:21:23;;;;;;;2.30;2.00;;;;;;;;;;5016208;28;20489;-68
2022/04/21 04:23:49;;;;;;;3.38;2.10;;;;;;;;;;5015699;28;20100;-68
2022/04/21 04:26:15;;;;;;;2.80;2.08;;;;;;;;;;5015960;28;20041;-68
2022/04/21 04:28:41;;;;;;;3.15;1.98;;;;;;;;;;5033656;28;20059;-68
2022/04/21 04:31:08;;;;;;;2.92;1.92;;;;;;;;;;5026638;28;20048;-68
2022/04/21 04:33:34;;;;;;;3.40;1.95;;;;;;;;;;5015417;28;20057;-68
2022/04/21 04:36:00;;;;;;;2.97;2.00;;;;;;;;;;5015505;28;20125;-68
2022/04/21 04:38:26;;;;;;;2.63;2.10;;;;;;;;;;5015382;28;20425;-68
2022/04/21 04:40:52;;;;;;;2.72;2.00;;;;;;;;;;5015021;28;20513;-68
2022/04/21 04:43:18;;;;;;;2.92;2.20;;;;;;;;;;5015134;28;20046;-68
2022/04/21 04:48:29;;;;;;;3.10;2.08;;;;;;;;;;5015490;28;20065;-68
2022/04/21 04:50:55;;;;;;;2.28;1.88;;;;;;;;;;5015198;28;20390;-68
2022/04/21 04:53:21;;;;;;;2.40;1.90;;;;;;;;;;5014759;28;20547;-68
2022/04/21 04:55:47;;;;;;;2.53;1.90;;;;;;;;;;5015357;28;20049;-68
2022/04/21 04:58:13;;;;;;;2.20;1.98;;;;;;;;;;5014965;28;20069;-68
2022/04/21 05:00:39;;;;;;;2.10;1.80;;;;;;;;;;5015260;28;20187;-68
2022/04/21 05:03:05;;;;;;;2.97;2.08;;;;;;;;;;5015370;28;20127;-68
2022/04/21 05:05:31;;;;;;;2.50;2.00;;;;;;;;;;5015061;28;20045;-68
2022/04/21 05:07:58;;;;;;;2.25;1.90;;;;;;;;;;5014312;28;20048;-68
2022/04/21 05:10:28;;;;;;;2.40;2.10;;;;;;;;;;4985542;28;20061;-68
2022/04/21 05:12:54;;;;;;;3.20;2.10;;;;;;;;;;5014871;28;20100;-68
2022/04/21 05:15:20;;;;;;;2.80;2.10;;;;;;;;;;5014581;28;20038;-68
2022/04/21 05:17:46;;;;;;;2.95;2.00;;;;;;;;;;5013821;28;20401;-68
2022/04/21 05:20:13;;;;;;;2.38;2.13;;;;;;;;;;5014164;28;20834;-67
2022/04/21 05:22:40;;;;;;;2.70;2.00;;;;;;;;;;5014305;28;20077;-67
2022/04/21 05:25:09;;;;;;;1.95;1.80;;;;;;;;;;5014292;28;20048;-67
2022/04/21 05:27:37;;;;;;;2.20;1.80;;;;;;;;;;5014828;28;20042;-67
2022/04/21 05:32:49;;;;;;;2.38;1.92;;;;;;;;;;5015187;28;20120;-69
2022/04/21 05:35:16;;;;;;;3.97;2.88;;;;;;;;;;5014517;28;20428;-69
2022/04/21 05:37:42;;;;;;;3.92;3.53;;;;;;;;;;5009882;28;20049;-68
2022/04/21 05:40:09;;;;;;;4.90;4.40;;;;;;;;;;5017761;28;20041;-69
2022/04/21 05:42:35;;;;;;;4.45;4.05;;;;;;;;;;5014271;28;20046;-69
2022/04/21 05:45:02;;;;;;;4.45;4.00;;;;;;;;;;5014128;28;20137;-68
2022/04/21 05:47:28;;;;;;;4.45;4.05;;;;;;;;;;5013107;28;20045;-69
2022/04/21 05:49:54;;;;;;;3.78;3.47;;;;;;;;;;5013829;28;20045;-68
2022/04/21 05:52:23;;;;;;;3.83;3.47;;;;;;;;;;5013775;28;20046;-68
2022/04/21 05:54:50;;;;;;;3.75;3.42;;;;;;;;;;5013943;28;20046;-68
2022/04/21 05:57:16;;;;;;;4.03;3.28;;;;;;;;;;5014205;28;20042;-69
2022/04/21 05:59:42;;;;;;;4.25;3.47;;;;;;;;;;5013970;28;20049;-69
2022/04/21 06:02:08;;;;;;;4.13;3.17;;;;;;;;;;4996075;28;20125;-68
2022/04/21 06:04:34;;;;;;;4.78;3.58;;;;;;;;;;5011194;28;20088;-68
2022/04/21 06:07:00;;;;;;;3.50;3.10;;;;;;;;;;5011626;28;20772;-67
2022/04/21 06:09:26;;;;;;;3.40;3.10;;;;;;;;;;5013882;28;20093;-67
2022/04/21 06:11:52;;;;;;;3.55;3.00;;;;;;;;;;5013725;28;20137;-69
2022/04/21 06:14:18;;;;;;;3.95;3.13;;;;;;;;;;5013536;28;20125;-68
2022/04/21 06:16:44;;;;;;;3.25;2.95;;;;;;;;;;5013366;28;20053;-68
2022/04/21 06:19:10;;;;;;;4.70;3.03;;;;;;;;;;5013942;28;20100;-68
2022/04/21 06:21:36;;;;;;;3.15;2.85;;;;;;;;;;5012605;28;20129;-68
2022/04/21 06:24:02;;;;;;;3.42;2.83;;;;;;;;;;5013630;28;20042;-68
2022/04/21 06:26:28;;;;;;;3.30;2.95;;;;;;;;;;5013814;28;20072;-68
2022/04/21 06:28:57;;;;;;;4.45;3.10;;;;;;;;;;4995770;28;20475;-68
2022/04/21 06:31:23;;;;;;;3.20;2.90;;;;;;;;;;5013467;28;20088;-68
2022/04/21 06:33:49;;;;;;;3.33;2.70;;;;;;;;;;5013785;28;20045;-69
2022/04/21 06:36:15;;;;;;;4.30;2.60;;;;;;;;;;5012599;28;20042;-68
2022/04/21 06:38:42;;;;;;;3.22;2.72;;;;;;;;;;5013658;28;20505;-68
2022/04/21 06:41:08;;;;;;;3.30;3.00;;;;;;;;;;5013029;28;20508;-68
2022/04/21 06:49:03;;;;;;;3.17;2.80;;;;;;;;;;4995726;28;20054;-68
2022/04/21 06:51:30;;;;;;;3.00;2.70;;;;;;;;;;5013176;28;20088;-67
2022/04/21 06:53:56;;;;;;;3.70;2.80;;;;;;;;;;5013345;28;20526;-68
2022/04/21 06:56:22;;;;;;;4.75;2.80;;;;;;;;;;5010862;28;20394;-67
2022/04/21 06:58:48;;;;;;;3.33;2.55;;;;;;;;;;5012628;28;20085;-68
2022/04/21 07:01:14;;;;;;;3.30;2.70;;;;;;;;;;5013319;28;20480;-67
2022/04/21 07:03:40;;;;;;;3.00;2.70;;;;;;;;;;5012615;28;20091;-67
2022/04/21 07:06:06;;;;;;;4.30;2.90;;;;;;;;;;5012774;28;20063;-67
2022/04/21 07:08:32;;;;;;;3.05;2.85;;;;;;;;;;5018744;28;20084;-67
2022/04/21 07:10:58;;;;;;;4.32;2.88;;;;;;;;;;5016003;28;20046;-68
2022/04/21 07:13:24;;;;;;;3.72;2.78;;;;;;;;;;5013081;28;20523;-68
2022/04/21 07:15:50;;;;;;;2.97;2.67;;;;;;;;;;5012793;28;20089;-68
2022/04/21 07:18:18;;;;;;;3.10;2.80;;;;;;;;;;5002356;28;20092;-67
2022/04/21 07:20:44;;;;;;;3.17;2.60;;;;;;;;;;5016684;28;20408;-69
2022/04/21 07:23:10;;;;;;;2.83;2.63;;;;;;;;;;5015773;28;20116;-69
2022/04/21 07:25:36;;;;;;;3.35;2.60;;;;;;;;;;5016879;28;20046;-68
2022/04/21 07:28:02;;;;;;;4.13;2.70;;;;;;;;;;5016573;28;20037;-68
2022/04/21 07:30:28;;;;;;;12.07;3.90;;;;;;;;;;5016866;28;20125;-69
2022/04/21 07:32:54;;;;;;;11.32;3.75;;;;;;;;;;5016799;28;20074;-68
2022/04/21 07:35:20;;;;;;;11.55;4.00;;;;;;;;;;5016555;28;20524;-68
2022/04/21 07:37:46;;;;;;;11.57;4.13;;;;;;;;;;5016190;28;20038;-69
2022/04/21 07:40:12;;;;;;;7.22;3.20;;;;;;;;;;5016343;28;20124;-68
2022/04/21 07:42:38;;;;;;;11.20;3.60;;;;;;;;;;5016312;28;20169;-69
2022/04/21 07:45:05;;;;;;;10.27;3.50;;;;;;;;;;5016754;28;20104;-68
2022/04/21 07:47:31;;;;;;;9.02;3.40;;;;;;;;;;5016760;28;20045;-68
2022/04/21 07:49:57;;;;;;;8.23;3.15;;;;;;;;;;5016267;28;20033;-68
2022/04/21 07:55:16;;;;;;;5.70;3.03;;;;;;;;;;5008271;28;20050;-69
2022/04/21 07:57:43;;;;;;;6.47;2.83;;;;;;;;;;5015930;28;20249;-69
2022/04/21 08:00:09;;;;;;;8.95;3.03;;;;;;;;;;5016148;28;20053;-69
2022/04/21 08:02:37;;;;;;;6.97;2.80;;;;;;;;;;5016294;28;20536;-68
2022/04/21 08:05:03;;;;;;;14.13;3.75;;;;;;;;;;5015959;28;20057;-67
2022/04/21 08:07:30;;;;;;;14.95;3.42;;;;;;;;;;5015766;28;20041;-68
2022/04/21 08:09:56;;;;;;;15.20;3.80;;;;;;;;;;5015943;28;20107;-68
2022/04/21 08:12:23;;;;;;;14.90;3.95;;;;;;;;;;5015764;28;20049;-68
2022/04/21 08:14:48;;;;;;;13.40;3.60;;;;;;;;;;5015477;28;20046;-68
2022/04/21 08:17:14;;;;;;;17.27;4.07;;;;;;;;;;5016328;28;20042;-69
2022/04/21 08:19:40;;;;;;;13.32;3.63;;;;;;;;;;5016057;28;20512;-67
2022/04/21 08:22:07;;;;;;;9.30;3.17;;;;;;;;;;5015543;28;20168;-68
2022/04/21 08:32:47;;;;;;;12.38;3.40;;;;;;;;;;4996083;28;20050;-67
2022/04/21 08:35:13;;;;;;;10.52;3.35;;;;;;;;;;5002390;28;20041;-68
2022/04/21 08:37:41;;;;;;;7.65;3.22;;;;;;;;;;5015775;28;20045;-67
2022/04/21 08:40:08;;;;;;;14.43;4.47;;;;;;;;;;5015587;28;20046;-67
2022/04/21 08:42:38;;;;;;;14.00;3.72;;;;;;;;;;5015806;28;20042;-68
2022/04/21 08:45:05;;;;;;;13.82;3.60;;;;;;;;;;5011277;28;20050;-68
2022/04/21 08:47:31;;;;;;;10.65;3.35;;;;;;;;;;5015306;28;20045;-69
2022/04/21 08:50:02;;;;;;;15.00;4.07;;;;;;;;;;5015444;28;20065;-68
2022/04/21 08:52:28;;;;;;;12.63;3.00;;;;;;;;;;5015674;28;20134;-68
2022/04/21 08:54:55;;;;;;;16.77;3.47;;;;;;;;;;5014049;28;20049;-68
2022/04/21 08:57:24;;;;;;;11.65;3.40;;;;;;;;;;5009171;28;20463;-68
2022/04/21 08:59:50;;;;;;;9.02;3.20;;;;;;;;;;5014782;28;20401;-68
2022/04/21 09:02:16;;;;;;;12.18;2.80;;;;;;;;;;5014975;28;20145;-68
2022/04/21 09:04:42;;;;;;;9.02;2.90;;;;;;;;;;5015155;28;20064;-68
2022/04/21 09:07:15;;;;;;;15.85;3.60;;;;;;;;;;4997779;28;20057;-68
2022/04/21 09:09:59;;;;;;;10.95;3.53;;;;;;;;;;5013664;28;20635;-68
2022/04/21 09:12:25;;;;;;;11.32;3.30;;;;;;;;;;5014970;28;20845;-69
2022/04/21 09:14:51;;;;;;;9.00;3.40;;;;;;;;;;5014847;28;20080;-69
2022/04/21 09:17:17;;;;;;;13.65;3.72;;;;;;;;;;5013562;28;20077;-69
2022/04/21 09:19:56;;;;;;;9.35;3.20;;;;;;;;;;5002151;28;20501;-69
2022/04/21 09:22:22;;;;;;;7.93;2.83;;;;;;;;;;5017745;28;20045;-69
2022/04/21 09:24:51;;;;;;;7.80;2.63;;;;;;;;;;5014164;28;20061;-69
2022/04/21 09:27:17;;;;;;;8.68;3.13;;;;;;;;;;5014640;28;20555;-69
2022/04/21 09:29:43;;;;;;;7.50;2.78;;;;;;;;;;4996775;28;20413;-69
2022/04/21 09:32:09;;;;;;;7.07;2.95;;;;;;;;;;5014520;28;20496;-69
2022/04/21 09:34:36;;;;;;;9.50;2.70;;;;;;;;;;5014448;28;20073;-69
2022/04/21 09:37:05;;;;;;;8.05;2.80;;;;;;;;;;5014650;28;20046;-69
2022/04/21 09:39:31;;;;;;;7.18;2.60;;;;;;;;;;5013226;28;20049;-69
2022/04/21 09:41:57;;;;;;;9.80;3.80;;;;;;;;;;5014003;28;20048;-69
2022/04/21 09:47:30;;;;;;;7.05;2.60;;;;;;;;;;5017080;28;20484;-69
2022/04/21 09:49:57;;;;;;;8.15;3.05;;;;;;;;;;4994764;28;20129;-69
2022/04/21 09:52:27;;;;;;;4.93;2.15;;;;;;;;;;5011371;28;20049;-69
2022/04/21 09:54:53;;;;;;;5.28;2.50;;;;;;;;;;5013791;28;20497;-69
2022/04/21 09:57:31;;;;;;;9.60;2.67;;;;;;;;;;4996396;28;20046;-69
2022/04/21 10:00:00;;;;;;;9.73;2.90;;;;;;;;;;5014268;28;20038;-69
2022/04/21 10:02:27;;;;;;;9.68;2.70;;;;;;;;;;5013900;28;20046;-68
2022/04/21 10:04:55;;;;;;;11.93;3.40;;;;;;;;;;5014211;28;20116;-68
2022/04/21 10:07:21;;;;;;;10.23;3.13;;;;;;;;;;5013940;28;20050;-68
2022/04/21 10:09:48;;;;;;;7.78;3.28;;;;;;;;;;5013481;28;20046;-69
2022/04/21 10:12:14;;;;;;;8.80;2.92;;;;;;;;;;5014088;28;20042;-68
2022/04/21 10:14:40;;;;;;;9.13;3.17;;;;;;;;;;5013217;28;20420;-68
2022/04/21 10:17:10;;;;;;;13.23;3.60;;;;;;;;;;5013322;28;20540;-69
2022/04/21 10:19:36;;;;;;;14.07;3.33;;;;;;;;;;5013558;28;20104;-67
2022/04/21 10:22:05;;;;;;;10.57;2.80;;;;;;;;;;5014253;28;20133;-66
2022/04/21 10:24:34;;;;;;;10.50;2.72;;;;;;;;;;5013643;28;20042;-66
2022/04/21 10:27:01;;;;;;;7.63;3.10;;;;;;;;;;5013686;28;20565;-67
2022/04/21 10:29:27;;;;;;;11.60;2.90;;;;;;;;;;5013359;28;20074;-68
2022/04/21 10:32:03;;;;;;;6.47;2.95;;;;;;;;;;5013508;28;20050;-69
2022/04/21 10:34:45;;;;;;;8.18;3.13;;;;;;;;;;5013433;28;20593;-67
2022/04/21 10:37:20;;;;;;;8.70;2.78;;;;;;;;;;5008359;28;20096;-69
2022/04/21 10:40:07;;;;;;;9.35;2.97;;;;;;;;;;4993866;28;20480;-67
2022/04/21 10:42:52;;;;;;;18.02;3.95;;;;;;;;;;4997492;28;20045;-68
2022/04/21 10:45:27;;;;;;;13.40;3.40;;;;;;;;;;5012466;28;20050;-68
2022/04/21 10:48:05;;;;;;;10.75;3.35;;;;;;;;;;5021623;28;20222;-67
2022/04/21 10:50:32;;;;;;;8.75;3.10;;;;;;;;;;5025049;28;20048;-68
2022/04/21 10:58:36;;;;;;;8.35;2.78;;;;;;;;;;5012685;28;20108;-68
2022/04/21 11:01:08;;;;;;;8.82;2.88;;;;;;;;;;5018357;28;20069;-68
2022/04/21 11:03:36;;;;;;;9.85;2.78;;;;;;;;;;5013143;28;20034;-68
2022/04/21 11:06:13;;;;;;;6.00;2.45;;;;;;;;;;5013239;28;20082;-68
2022/04/21 11:08:39;;;;;;;9.00;2.95;;;;;;;;;;5013347;28;20192;-68
2022/04/21 11:11:05;;;;;;;9.40;2.50;;;;;;;;;;5012849;28;20548;-68
2022/04/21 11:13:40;;;;;;;8.23;2.75;;;;;;;;;;5012940;28;20092;-68
2022/04/21 11:16:07;;;;;;;8.40;2.85;;;;;;;;;;5013135;28;20046;-68
2022/04/21 11:18:33;;;;;;;6.78;2.53;;;;;;;;;;5012649;28;20447;-67
2022/04/21 11:21:18;;;;;;;9.02;2.40;;;;;;;;;;5012391;28;20064;-68
2022/04/21 11:23:44;;;;;;;6.50;2.70;;;;;;;;;;5012581;28;20034;-68
2022/04/21 11:26:10;;;;;;;4.70;2.63;;;;;;;;;;5013243;28;20481;-69
2022/04/21 11:28:37;;;;;;;5.90;2.40;;;;;;;;;;5012551;28;20061;-68
2022/04/21 11:31:03;;;;;;;5.82;2.20;;;;;;;;;;5013093;28;20050;-69
2022/04/21 11:33:33;;;;;;;4.55;2.50;;;;;;;;;;5012967;28;20038;-68
2022/04/21 11:36:05;;;;;;;5.53;2.20;;;;;;;;;;5012807;28;20397;-68
2022/04/21 11:38:32;;;;;;;5.55;2.42;;;;;;;;;;4995469;28;20061;-68
2022/04/21 11:41:02;;;;;;;5.82;2.42;;;;;;;;;;5012933;28;20129;-68
2022/04/21 11:43:28;;;;;;;4.45;2.00;;;;;;;;;;4995136;28;20049;-68
2022/04/21 11:45:55;;;;;;;3.88;2.20;;;;;;;;;;5012715;28;20050;-68
2022/04/21 11:48:21;;;;;;;5.15;2.20;;;;;;;;;;4995139;28;20481;-68
2022/04/21 11:50:49;;;;;;;4.82;2.35;;;;;;;;;;5012831;28;20074;-69
2022/04/21 11:53:18;;;;;;;6.50;2.30;;;;;;;;;;5012798;28;20068;-68
2022/04/21 11:55:45;;;;;;;5.03;2.25;;;;;;;;;;5012796;28;20053;-68
2022/04/21 11:58:11;;;;;;;4.65;2.47;;;;;;;;;;5012441;28;20049;-68
2022/04/21 12:08:51;;;;;;;3.88;2.22;;;;;;;;;;5016401;28;20050;-69
2022/04/21 12:11:19;;;;;;;4.07;2.20;;;;;;;;;;5016090;28;20042;-68
2022/04/21 12:13:47;;;;;;;4.47;2.10;;;;;;;;;;5016264;28;20042;-68
2022/04/21 12:16:50;;;;;;;5.40;2.10;;;;;;;;;;5016284;28;20049;-68
2022/04/21 12:19:17;;;;;;;3.53;2.22;;;;;;;;;;4973626;28;20159;-67
2022/04/21 12:21:44;;;;;;;6.15;2.13;;;;;;;;;;4974398;28;20063;-68
2022/04/21 12:24:14;;;;;;;3.90;1.90;;;;;;;;;;4973944;28;20138;-68
2022/04/21 12:26:50;;;;;;;5.18;2.15;;;;;;;;;;4974390;28;20494;-68
2022/04/21 12:29:16;;;;;;;4.45;2.22;;;;;;;;;;4974449;28;20043;-68
2022/04/21 12:31:43;;;;;;;4.38;2.00;;;;;;;;;;4974416;28;20049;-68
2022/04/21 12:34:10;;;;;;;3.90;2.10;;;;;;;;;;4974261;28;20074;-68
2022/04/21 12:36:36;;;;;;;3.88;2.05;;;;;;;;;;4975134;28;20394;-68
2022/04/21 12:39:02;;;;;;;4.60;2.00;;;;;;;;;;4974266;28;20039;-68
2022/04/21 12:41:28;;;;;;;3.05;2.10;;;;;;;;;;4974348;28;20051;-68
2022/04/21 12:43:56;;;;;;;4.22;2.40;;;;;;;;;;4974261;28;20042;-68
2022/04/21 12:46:22;;;;;;;5.65;2.33;;;;;;;;;;4974578;28;20063;-68
2022/04/21 12:48:49;;;;;;;3.08;2.00;;;;;;;;;;4958815;28;20046;-68
2022/04/21 12:51:19;;;;;;;4.00;2.20;;;;;;;;;;4972791;28;20561;-67
2022/04/21 12:53:55;;;;;;;4.55;2.00;;;;;;;;;;5004364;28;20054;-68
2022/04/21 12:56:32;;;;;;;2.70;1.90;;;;;;;;;;5020104;28;20052;-68
2022/04/21 12:58:58;;;;;;;4.10;2.08;;;;;;;;;;5005756;28;20045;-68
2022/04/21 13:01:24;;;;;;;3.60;2.13;;;;;;;;;;5015181;28;20054;-68
2022/04/21 13:03:50;;;;;;;3.78;2.10;;;;;;;;;;5015239;28;20124;-68
2022/04/21 13:06:25;;;;;;;3.35;2.10;;;;;;;;;;5015274;28;20133;-68
2022/04/21 13:08:51;;;;;;;3.08;2.10;;;;;;;;;;5015130;28;20076;-68
2022/04/21 13:11:17;;;;;;;4.72;2.33;;;;;;;;;;5014574;28;20425;-69
2022/04/21 13:13:43;;;;;;;3.35;2.00;;;;;;;;;;5014501;28;20041;-68
2022/04/21 13:16:09;;;;;;;3.20;2.00;;;;;;;;;;5014427;28;20042;-68
2022/04/21 13:18:35;;;;;;;2.20;2.00;;;;;;;;;;5014773;28;20049;-68
2022/04/21 13:23:46;;;;;;;2.83;1.92;;;;;;;;;;5014888;28;20132;-69
2022/04/21 13:26:12;;;;;;;4.00;1.92;;;;;;;;;;5014461;28;20297;-68
2022/04/21 13:28:38;;;;;;;3.25;1.85;;;;;;;;;;5013981;28;20132;-68
2022/04/21 13:33:49;;;;;;;4.47;1.90;;;;;;;;;;5014675;28;20374;-68
2022/04/21 13:36:16;;;;;;;2.45;1.88;;;;;;;;;;5014024;28;20045;-68
2022/04/21 13:38:43;;;;;;;9.00;2.28;;;;;;;;;;5014159;28;20057;-68
2022/04/21 13:41:09;;;;;;;7.93;2.72;;;;;;;;;;5014079;28;20045;-69
2022/04/21 13:43:35;;;;;;;4.95;2.00;;;;;;;;;;5014041;28;20125;-68
2022/04/21 13:46:01;;;;;;;6.25;2.25;;;;;;;;;;5014652;28;20045;-68
2022/04/21 13:48:27;;;;;;;4.07;2.22;;;;;;;;;;5014198;28;20045;-68
2022/04/21 13:50:53;;;;;;;6.50;2.05;;;;;;;;;;5014186;28;20525;-68
2022/04/21 13:53:19;;;;;;;6.50;2.28;;;;;;;;;;5014182;28;20052;-68
2022/04/21 13:55:45;;;;;;;6.35;2.28;;;;;;;;;;5014183;28;20049;-68
2022/04/21 13:58:13;;;;;;;5.47;2.53;;;;;;;;;;5013807;28;20561;-68
2022/04/21 14:00:44;;;;;;;4.03;2.17;;;;;;;;;;5014398;28;20081;-68
2022/04/21 14:03:10;;;;;;;6.10;2.10;;;;;;;;;;5013976;28;20104;-68
2022/04/21 14:05:37;;;;;;;4.97;2.10;;;;;;;;;;5013953;28;20497;-68
2022/04/21 14:08:04;;;;;;;3.20;1.90;;;;;;;;;;5013855;28;20046;-68
2022/04/21 14:10:30;;;;;;;6.70;2.35;;;;;;;;;;5013901;28;20033;-68
2022/04/21 14:12:56;;;;;;;3.92;2.03;;;;;;;;;;5012652;28;20134;-68
2022/04/21 14:15:23;;;;;;;4.32;2.00;;;;;;;;;;5014101;28;20065;-68
2022/04/21 14:17:49;;;;;;;9.43;2.22;;;;;;;;;;5013786;28;20046;-68
2022/04/21 14:20:15;;;;;;;5.13;2.17;;;;;;;;;;5013791;28;20569;-68
2022/04/21 14:22:41;;;;;;;4.05;2.03;;;;;;;;;;5011471;28;20132;-68
2022/04/21 14:25:07;;;;;;;8.35;2.47;;;;;;;;;;5013047;28;20105;-68
2022/04/21 14:27:33;;;;;;;7.57;3.20;;;;;;;;;;5012591;28;20053;-68
2022/04/21 14:30:01;;;;;;;15.45;8.38;;;;;;;;;;5013816;28;20041;-68
2022/04/21 14:32:27;;;;;;;17.05;7.55;;;;;;;;;;5012483;28;20052;-68
2022/04/21 14:34:53;;;;;;;22.48;9.50;;;;;;;;;;5013921;28;20121;-68
2022/04/21 14:44:04;;;;;;;10.48;5.57;;;;;;;;;;5013339;28;20129;-68
2022/04/21 14:45:35;;;;;;;12.05;3.45;;;;;;;;;;5013389;28;20075;-68
2022/04/21 14:48:01;;;;;;;9.73;3.30;;;;;;;;;;5013287;28;20046;-68
2022/04/21 14:50:27;;;;;;;8.20;3.08;;;;;;;;;;5013653;28;20066;-68
2022/04/21 14:52:53;;;;;;;5.53;2.97;;;;;;;;;;5013409;28;20073;-69
2022/04/21 14:55:19;;;;;;;4.75;2.78;;;;;;;;;;5012986;28;20143;-68
2022/04/21 14:57:45;;;;;;;8.95;3.20;;;;;;;;;;5012801;28;20046;-69
2022/04/21 15:00:12;;;;;;;6.13;3.17;;;;;;;;;;5012771;28;20053;-68
2022/04/21 15:02:38;;;;;;;7.13;3.20;;;;;;;;;;5012971;28;20076;-68
2022/04/21 15:05:04;;;;;;;4.97;2.83;;;;;;;;;;5012192;28;20038;-68
2022/04/21 15:07:30;;;;;;;6.88;3.10;;;;;;;;;;4995195;28;20054;-68
2022/04/21 15:09:56;;;;;;;6.75;2.95;;;;;;;;;;5012382;28;20045;-69
2022/04/21 15:12:22;;;;;;;5.75;3.00;;;;;;;;;;5012973;28;20632;-68
2022/04/21 15:14:49;;;;;;;5.82;2.75;;;;;;;;;;5012951;28;20124;-68
2022/04/21 15:17:15;;;;;;;5.65;3.15;;;;;;;;;;5012731;28;20116;-68
2022/04/21 15:19:44;;;;;;;6.93;2.53;;;;;;;;;;5012308;28;20053;-69
2022/04/21 15:22:10;;;;;;;6.70;2.63;;;;;;;;;;4994386;28;20057;-69
2022/04/21 15:24:36;;;;;;;6.13;2.83;;;;;;;;;;5012500;28;20142;-69
2022/04/21 15:27:02;;;;;;;6.05;2.70;;;;;;;;;;5013410;28;20468;-69
2022/04/21 15:29:28;;;;;;;6.10;2.70;;;;;;;;;;5010897;28;20042;-69
2022/04/21 15:31:54;;;;;;;4.30;2.40;;;;;;;;;;5012831;28;20046;-69
2022/04/21 15:34:20;;;;;;;5.55;2.80;;;;;;;;;;5013070;28;20069;-69
2022/04/21 15:36:46;;;;;;;8.13;3.00;;;;;;;;;;5012745;28;20049;-68
2022/04/21 15:39:13;;;;;;;5.47;2.60;;;;;;;;;;5016638;28;20050;-69
2022/04/21 15:41:39;;;;;;;6.47;2.63;;;;;;;;;;5016649;28;20037;-68
2022/04/21 15:44:05;;;;;;;5.07;3.33;;;;;;;;;;5017709;28;20129;-69
2022/04/21 15:46:31;;;;;;;5.40;2.70;;;;;;;;;;5016579;28;20045;-69
2022/04/21 15:48:57;;;;;;;3.72;2.60;;;;;;;;;;4997745;28;20400;-69